sensor_id;sensor_type;location;lat;lon;timestamp;temperature;humidity
59923;DHT22;45778;51.142;3.732;2022-08-14T00:02:03;22.00;63.90
59923;DHT22;45778;51.142;3.732;2022-08-14T00:04:33;21.90;64.60
59923;DHT22;45778;51.142;3.732;2022-08-14T00:06:59;21.90;64.90
59923;DHT22;45778;51.142;3.732;2022-08-14T00:09:25;21.80;64.80
59923;DHT22;45778;51.142;3.732;2022-08-14T00:11:51;21.70;65.40
59923;DHT22;45778;51.142;3.732;2022-08-14T00:14:17;21.60;65.40
59923;DHT22;45778;51.142;3.732;2022-08-14T00:16:43;21.60;65.30
59923;DHT22;45778;51.142;3.732;2022-08-14T00:19:09;21.60;65.40
59923;DHT22;45778;51.142;3.732;2022-08-14T00:21:34;21.50;65.40
59923;DHT22;45778;51.142;3.732;2022-08-14T00:24:01;21.60;65.50
59923;DHT22;45778;51.142;3.732;2022-08-14T00:26:29;21.50;65.50
59923;DHT22;45778;51.142;3.732;2022-08-14T00:28:54;21.50;66.00
59923;DHT22;45778;51.142;3.732;2022-08-14T00:31:21;21.60;65.70
59923;DHT22;45778;51.142;3.732;2022-08-14T00:33:47;21.60;65.70
59923;DHT22;45778;51.142;3.732;2022-08-14T00:36:12;21.60;65.50
59923;DHT22;45778;51.142;3.732;2022-08-14T00:38:38;21.60;65.70
59923;DHT22;45778;51.142;3.732;2022-08-14T00:41:05;21.60;65.70
59923;DHT22;45778;51.142;3.732;2022-08-14T00:43:35;21.70;64.90
59923;DHT22;45778;51.142;3.732;2022-08-14T00:46:04;21.70;65.20
59923;DHT22;45778;51.142;3.732;2022-08-14T00:48:30;21.70;64.90
59923;DHT22;45778;51.142;3.732;2022-08-14T00:50:56;21.70;64.90
59923;DHT22;45778;51.142;3.732;2022-08-14T00:53:22;21.70;65.20
59923;DHT22;45778;51.142;3.732;2022-08-14T00:55:50;21.70;65.10
59923;DHT22;45778;51.142;3.732;2022-08-14T00:58:16;21.70;65.20
59923;DHT22;45778;51.142;3.732;2022-08-14T01:01:06;21.50;65.40
59923;DHT22;45778;51.142;3.732;2022-08-14T01:03:34;21.50;65.50
59923;DHT22;45778;51.142;3.732;2022-08-14T01:06:02;21.60;65.40
59923;DHT22;45778;51.142;3.732;2022-08-14T01:08:30;21.70;65.00
59923;DHT22;45778;51.142;3.732;2022-08-14T01:10:56;21.70;65.20
59923;DHT22;45778;51.142;3.732;2022-08-14T01:13:33;21.70;64.80
59923;DHT22;45778;51.142;3.732;2022-08-14T01:16:01;21.80;64.40
59923;DHT22;45778;51.142;3.732;2022-08-14T01:18:29;21.80;64.30
59923;DHT22;45778;51.142;3.732;2022-08-14T01:21:15;21.80;64.20
59923;DHT22;45778;51.142;3.732;2022-08-14T01:23:50;21.80;64.30
59923;DHT22;45778;51.142;3.732;2022-08-14T01:26:18;21.80;64.20
59923;DHT22;45778;51.142;3.732;2022-08-14T01:28:46;21.80;64.20
59923;DHT22;45778;51.142;3.732;2022-08-14T01:31:18;21.80;64.20
59923;DHT22;45778;51.142;3.732;2022-08-14T01:33:47;21.80;64.20
59923;DHT22;45778;51.142;3.732;2022-08-14T01:36:15;21.80;64.30
59923;DHT22;45778;51.142;3.732;2022-08-14T01:38:43;21.70;64.30
59923;DHT22;45778;51.142;3.732;2022-08-14T01:41:12;21.70;64.50
59923;DHT22;45778;51.142;3.732;2022-08-14T01:46:18;21.70;64.80
59923;DHT22;45778;51.142;3.732;2022-08-14T01:48:44;21.60;65.10
59923;DHT22;45778;51.142;3.732;2022-08-14T01:51:11;21.50;65.40
59923;DHT22;45778;51.142;3.732;2022-08-14T01:53:44;21.50;65.50
59923;DHT22;45778;51.142;3.732;2022-08-14T01:56:13;21.50;65.60
59923;DHT22;45778;51.142;3.732;2022-08-14T01:58:43;21.40;65.80
59923;DHT22;45778;51.142;3.732;2022-08-14T02:01:12;21.40;66.20
59923;DHT22;45778;51.142;3.732;2022-08-14T02:03:39;21.30;66.40
59923;DHT22;45778;51.142;3.732;2022-08-14T02:06:06;21.30;66.50
59923;DHT22;45778;51.142;3.732;2022-08-14T02:08:32;21.30;66.70
59923;DHT22;45778;51.142;3.732;2022-08-14T02:10:58;21.20;66.70
59923;DHT22;45778;51.142;3.732;2022-08-14T02:13:45;21.20;66.80
59923;DHT22;45778;51.142;3.732;2022-08-14T02:16:13;21.30;67.00
59923;DHT22;45778;51.142;3.732;2022-08-14T02:18:41;21.10;67.10
59923;DHT22;45778;51.142;3.732;2022-08-14T02:21:07;21.00;67.40
59923;DHT22;45778;51.142;3.732;2022-08-14T02:23:33;21.00;67.60
59923;DHT22;45778;51.142;3.732;2022-08-14T02:26:00;21.00;67.80
59923;DHT22;45778;51.142;3.732;2022-08-14T02:28:27;20.90;67.80
59923;DHT22;45778;51.142;3.732;2022-08-14T02:30:55;20.90;68.20
59923;DHT22;45778;51.142;3.732;2022-08-14T02:33:21;20.80;68.60
59923;DHT22;45778;51.142;3.732;2022-08-14T02:35:48;20.80;68.80
59923;DHT22;45778;51.142;3.732;2022-08-14T02:38:14;20.70;69.00
59923;DHT22;45778;51.142;3.732;2022-08-14T02:40:39;20.70;69.50
59923;DHT22;45778;51.142;3.732;2022-08-14T02:43:05;20.60;69.70
59923;DHT22;45778;51.142;3.732;2022-08-14T02:45:32;20.50;70.40
59923;DHT22;45778;51.142;3.732;2022-08-14T02:48:02;20.50;70.90
59923;DHT22;45778;51.142;3.732;2022-08-14T02:50:31;20.40;71.60
59923;DHT22;45778;51.142;3.732;2022-08-14T02:52:57;20.30;72.00
59923;DHT22;45778;51.142;3.732;2022-08-14T02:55:22;20.20;72.10
59923;DHT22;45778;51.142;3.732;2022-08-14T02:57:49;20.10;72.60
59923;DHT22;45778;51.142;3.732;2022-08-14T03:00:16;20.10;72.60
59923;DHT22;45778;51.142;3.732;2022-08-14T03:02:42;20.00;72.40
59923;DHT22;45778;51.142;3.732;2022-08-14T03:05:08;19.90;72.40
59923;DHT22;45778;51.142;3.732;2022-08-14T03:07:36;19.90;73.40
59923;DHT22;45778;51.142;3.732;2022-08-14T03:10:02;19.90;74.20
59923;DHT22;45778;51.142;3.732;2022-08-14T03:12:28;19.70;74.60
59923;DHT22;45778;51.142;3.732;2022-08-14T03:14:56;19.70;75.00
59923;DHT22;45778;51.142;3.732;2022-08-14T03:17:23;19.70;75.50
59923;DHT22;45778;51.142;3.732;2022-08-14T03:19:48;19.70;74.80
59923;DHT22;45778;51.142;3.732;2022-08-14T03:22:15;19.70;75.00
59923;DHT22;45778;51.142;3.732;2022-08-14T03:24:41;19.70;74.50
59923;DHT22;45778;51.142;3.732;2022-08-14T03:27:06;19.70;74.10
59923;DHT22;45778;51.142;3.732;2022-08-14T03:29:32;19.70;73.90
59923;DHT22;45778;51.142;3.732;2022-08-14T03:31:58;19.70;73.60
59923;DHT22;45778;51.142;3.732;2022-08-14T03:34:24;19.70;73.40
59923;DHT22;45778;51.142;3.732;2022-08-14T03:36:50;19.70;73.50
59923;DHT22;45778;51.142;3.732;2022-08-14T03:39:21;19.70;73.60
59923;DHT22;45778;51.142;3.732;2022-08-14T03:41:49;19.70;73.80
59923;DHT22;45778;51.142;3.732;2022-08-14T03:44:15;19.70;74.20
59923;DHT22;45778;51.142;3.732;2022-08-14T03:46:41;19.60;74.40
59923;DHT22;45778;51.142;3.732;2022-08-14T03:49:07;19.70;74.50
59923;DHT22;45778;51.142;3.732;2022-08-14T03:51:35;19.60;74.50
59923;DHT22;45778;51.142;3.732;2022-08-14T03:54:05;19.60;74.40
59923;DHT22;45778;51.142;3.732;2022-08-14T03:56:33;19.60;74.50
59923;DHT22;45778;51.142;3.732;2022-08-14T03:59:04;19.50;74.80
59923;DHT22;45778;51.142;3.732;2022-08-14T04:01:33;19.50;75.40
59923;DHT22;45778;51.142;3.732;2022-08-14T04:03:58;19.50;74.90
59923;DHT22;45778;51.142;3.732;2022-08-14T04:06:31;19.40;75.40
59923;DHT22;45778;51.142;3.732;2022-08-14T04:08:57;19.40;75.30
59923;DHT22;45778;51.142;3.732;2022-08-14T04:11:22;19.40;75.40
59923;DHT22;45778;51.142;3.732;2022-08-14T04:13:48;19.40;75.70
59923;DHT22;45778;51.142;3.732;2022-08-14T04:16:19;19.30;75.80
59923;DHT22;45778;51.142;3.732;2022-08-14T04:18:49;19.40;75.60
59923;DHT22;45778;51.142;3.732;2022-08-14T04:21:16;19.30;75.70
59923;DHT22;45778;51.142;3.732;2022-08-14T04:23:44;19.30;76.00
59923;DHT22;45778;51.142;3.732;2022-08-14T04:26:12;19.20;76.40
59923;DHT22;45778;51.142;3.732;2022-08-14T04:28:40;19.10;76.60
59923;DHT22;45778;51.142;3.732;2022-08-14T04:31:06;19.10;77.10
59923;DHT22;45778;51.142;3.732;2022-08-14T04:33:32;19.10;77.20
59923;DHT22;45778;51.142;3.732;2022-08-14T04:35:58;19.10;77.40
59923;DHT22;45778;51.142;3.732;2022-08-14T04:38:24;19.10;78.00
59923;DHT22;45778;51.142;3.732;2022-08-14T04:41:09;19.10;78.00
59923;DHT22;45778;51.142;3.732;2022-08-14T04:43:53;19.10;78.30
59923;DHT22;45778;51.142;3.732;2022-08-14T04:46:21;19.10;78.30
59923;DHT22;45778;51.142;3.732;2022-08-14T04:48:47;19.10;78.20
59923;DHT22;45778;51.142;3.732;2022-08-14T04:51:16;19.10;78.10
59923;DHT22;45778;51.142;3.732;2022-08-14T04:53:46;19.30;77.90
59923;DHT22;45778;51.142;3.732;2022-08-14T04:56:18;19.20;77.90
59923;DHT22;45778;51.142;3.732;2022-08-14T04:58:48;19.20;78.10
59923;DHT22;45778;51.142;3.732;2022-08-14T05:01:14;19.20;78.00
59923;DHT22;45778;51.142;3.732;2022-08-14T05:03:40;19.20;78.10
59923;DHT22;45778;51.142;3.732;2022-08-14T05:06:08;19.30;77.70
59923;DHT22;45778;51.142;3.732;2022-08-14T05:08:36;19.30;77.60
59923;DHT22;45778;51.142;3.732;2022-08-14T05:11:04;19.40;77.50
59923;DHT22;45778;51.142;3.732;2022-08-14T05:13:32;19.50;77.30
59923;DHT22;45778;51.142;3.732;2022-08-14T05:15:59;19.60;76.80
59923;DHT22;45778;51.142;3.732;2022-08-14T05:18:28;19.60;76.30
59923;DHT22;45778;51.142;3.732;2022-08-14T05:20:57;19.70;76.20
59923;DHT22;45778;51.142;3.732;2022-08-14T05:23:26;19.80;76.00
59923;DHT22;45778;51.142;3.732;2022-08-14T05:25:54;19.90;75.70
59923;DHT22;45778;51.142;3.732;2022-08-14T05:28:25;19.90;75.90
59923;DHT22;45778;51.142;3.732;2022-08-14T05:30:57;19.90;75.80
59923;DHT22;45778;51.142;3.732;2022-08-14T05:33:27;20.00;75.60
59923;DHT22;45778;51.142;3.732;2022-08-14T05:35:54;20.10;75.40
59923;DHT22;45778;51.142;3.732;2022-08-14T05:38:35;20.10;75.50
59923;DHT22;45778;51.142;3.732;2022-08-14T05:41:06;20.30;75.20
59923;DHT22;45778;51.142;3.732;2022-08-14T05:43:32;20.30;74.80
59923;DHT22;45778;51.142;3.732;2022-08-14T05:45:59;20.20;75.30
59923;DHT22;45778;51.142;3.732;2022-08-14T05:48:25;20.30;75.00
59923;DHT22;45778;51.142;3.732;2022-08-14T05:50:52;20.50;74.60
59923;DHT22;45778;51.142;3.732;2022-08-14T05:53:20;20.50;74.50
59923;DHT22;45778;51.142;3.732;2022-08-14T05:55:47;20.40;74.50
59923;DHT22;45778;51.142;3.732;2022-08-14T05:58:12;20.50;74.30
59923;DHT22;45778;51.142;3.732;2022-08-14T06:00:41;20.50;74.30
59923;DHT22;45778;51.142;3.732;2022-08-14T06:03:10;20.60;74.00
59923;DHT22;45778;51.142;3.732;2022-08-14T06:05:37;20.80;73.90
59923;DHT22;45778;51.142;3.732;2022-08-14T06:08:03;20.90;73.20
59923;DHT22;45778;51.142;3.732;2022-08-14T06:10:30;21.10;73.30
59923;DHT22;45778;51.142;3.732;2022-08-14T06:12:56;21.30;73.00
59923;DHT22;45778;51.142;3.732;2022-08-14T06:15:23;21.40;72.50
59923;DHT22;45778;51.142;3.732;2022-08-14T06:17:52;21.60;72.00
59923;DHT22;45778;51.142;3.732;2022-08-14T06:20:18;21.80;71.10
59923;DHT22;45778;51.142;3.732;2022-08-14T06:22:46;22.00;70.90
59923;DHT22;45778;51.142;3.732;2022-08-14T06:25:13;22.00;70.20
59923;DHT22;45778;51.142;3.732;2022-08-14T06:27:46;22.10;70.60
59923;DHT22;45778;51.142;3.732;2022-08-14T06:30:17;22.30;70.30
59923;DHT22;45778;51.142;3.732;2022-08-14T06:32:43;22.40;69.70
59923;DHT22;45778;51.142;3.732;2022-08-14T06:35:12;22.30;70.00
59923;DHT22;45778;51.142;3.732;2022-08-14T06:40:31;22.50;68.70
59923;DHT22;45778;51.142;3.732;2022-08-14T06:43:00;22.80;68.00
59923;DHT22;45778;51.142;3.732;2022-08-14T06:45:26;23.00;68.30
59923;DHT22;45778;51.142;3.732;2022-08-14T06:47:53;22.90;67.30
59923;DHT22;45778;51.142;3.732;2022-08-14T06:50:20;23.00;67.00
59923;DHT22;45778;51.142;3.732;2022-08-14T06:52:46;23.00;66.40
59923;DHT22;45778;51.142;3.732;2022-08-14T06:55:14;23.10;65.60
59923;DHT22;45778;51.142;3.732;2022-08-14T06:57:44;23.00;65.70
59923;DHT22;45778;51.142;3.732;2022-08-14T07:00:15;23.00;65.90
59923;DHT22;45778;51.142;3.732;2022-08-14T07:02:42;23.00;66.20
59923;DHT22;45778;51.142;3.732;2022-08-14T07:05:26;23.10;66.20
59923;DHT22;45778;51.142;3.732;2022-08-14T07:08:22;23.10;66.70
59923;DHT22;45778;51.142;3.732;2022-08-14T07:10:52;23.30;66.20
59923;DHT22;45778;51.142;3.732;2022-08-14T07:13:18;23.20;66.40
59923;DHT22;45778;51.142;3.732;2022-08-14T07:15:45;23.40;66.40
59923;DHT22;45778;51.142;3.732;2022-08-14T07:18:17;23.70;66.00
59923;DHT22;45778;51.142;3.732;2022-08-14T07:20:43;23.80;65.70
59923;DHT22;45778;51.142;3.732;2022-08-14T07:23:09;23.90;65.40
59923;DHT22;45778;51.142;3.732;2022-08-14T07:25:36;23.90;64.90
59923;DHT22;45778;51.142;3.732;2022-08-14T07:28:31;24.10;65.20
59923;DHT22;45778;51.142;3.732;2022-08-14T07:30:58;24.40;64.80
59923;DHT22;45778;51.142;3.732;2022-08-14T07:33:26;24.70;64.20
59923;DHT22;45778;51.142;3.732;2022-08-14T07:35:52;24.80;63.40
59923;DHT22;45778;51.142;3.732;2022-08-14T07:38:20;25.00;63.40
59923;DHT22;45778;51.142;3.732;2022-08-14T07:40:47;25.20;62.60
59923;DHT22;45778;51.142;3.732;2022-08-14T07:43:13;25.40;61.50
59923;DHT22;45778;51.142;3.732;2022-08-14T07:45:39;25.50;60.60
59923;DHT22;45778;51.142;3.732;2022-08-14T07:48:06;25.50;60.00
59923;DHT22;45778;51.142;3.732;2022-08-14T07:50:32;25.60;60.00
59923;DHT22;45778;51.142;3.732;2022-08-14T07:52:57;25.80;59.80
59923;DHT22;45778;51.142;3.732;2022-08-14T07:55:24;26.10;58.50
59923;DHT22;45778;51.142;3.732;2022-08-14T07:57:51;26.10;59.00
59923;DHT22;45778;51.142;3.732;2022-08-14T08:00:19;26.30;58.70
59923;DHT22;45778;51.142;3.732;2022-08-14T08:02:49;26.60;58.70
59923;DHT22;45778;51.142;3.732;2022-08-14T08:05:17;26.80;58.00
59923;DHT22;45778;51.142;3.732;2022-08-14T08:07:44;26.70;57.50
59923;DHT22;45778;51.142;3.732;2022-08-14T08:10:14;26.90;57.60
59923;DHT22;45778;51.142;3.732;2022-08-14T08:13:03;27.00;57.50
59923;DHT22;45778;51.142;3.732;2022-08-14T08:15:32;26.90;57.80
59923;DHT22;45778;51.142;3.732;2022-08-14T08:17:59;27.00;57.30
59923;DHT22;45778;51.142;3.732;2022-08-14T08:20:27;27.30;57.40
59923;DHT22;45778;51.142;3.732;2022-08-14T08:22:55;27.70;56.80
59923;DHT22;45778;51.142;3.732;2022-08-14T08:25:24;27.90;56.00
59923;DHT22;45778;51.142;3.732;2022-08-14T08:28:12;27.90;55.90
59923;DHT22;45778;51.142;3.732;2022-08-14T08:30:52;27.70;54.70
59923;DHT22;45778;51.142;3.732;2022-08-14T08:33:19;27.60;55.80
59923;DHT22;45778;51.142;3.732;2022-08-14T08:35:46;27.90;55.10
59923;DHT22;45778;51.142;3.732;2022-08-14T08:38:15;28.10;54.20
59923;DHT22;45778;51.142;3.732;2022-08-14T08:40:44;28.40;53.70
59923;DHT22;45778;51.142;3.732;2022-08-14T08:43:22;28.50;53.50
59923;DHT22;45778;51.142;3.732;2022-08-14T08:46:09;28.70;53.40
59923;DHT22;45778;51.142;3.732;2022-08-14T08:48:45;29.00;52.90
59923;DHT22;45778;51.142;3.732;2022-08-14T08:51:29;29.30;53.20
59923;DHT22;45778;51.142;3.732;2022-08-14T08:59:30;29.90;51.20
59923;DHT22;45778;51.142;3.732;2022-08-14T09:04:25;30.00;51.30
59923;DHT22;45778;51.142;3.732;2022-08-14T09:06:51;30.20;50.70
59923;DHT22;45778;51.142;3.732;2022-08-14T09:09:29;30.30;49.90
59923;DHT22;45778;51.142;3.732;2022-08-14T09:11:56;30.30;49.90
59923;DHT22;45778;51.142;3.732;2022-08-14T09:14:28;30.40;49.70
59923;DHT22;45778;51.142;3.732;2022-08-14T09:16:57;30.50;49.10
59923;DHT22;45778;51.142;3.732;2022-08-14T09:19:24;30.90;49.20
59923;DHT22;45778;51.142;3.732;2022-08-14T09:21:50;30.50;49.30
59923;DHT22;45778;51.142;3.732;2022-08-14T09:24:15;30.90;48.90
59923;DHT22;45778;51.142;3.732;2022-08-14T09:26:43;31.10;49.00
59923;DHT22;45778;51.142;3.732;2022-08-14T09:29:10;31.30;48.20
59923;DHT22;45778;51.142;3.732;2022-08-14T09:31:37;31.60;48.00
59923;DHT22;45778;51.142;3.732;2022-08-14T09:34:21;31.90;47.70
59923;DHT22;45778;51.142;3.732;2022-08-14T09:37:01;32.20;47.80
59923;DHT22;45778;51.142;3.732;2022-08-14T09:39:55;32.50;46.80
59923;DHT22;45778;51.142;3.732;2022-08-14T09:42:42;32.30;46.70
59923;DHT22;45778;51.142;3.732;2022-08-14T09:45:15;32.50;46.30
59923;DHT22;45778;51.142;3.732;2022-08-14T09:47:50;32.70;45.80
59923;DHT22;45778;51.142;3.732;2022-08-14T09:50:21;32.50;46.50
59923;DHT22;45778;51.142;3.732;2022-08-14T09:53:06;32.50;45.50
59923;DHT22;45778;51.142;3.732;2022-08-14T09:55:34;32.70;45.60
59923;DHT22;45778;51.142;3.732;2022-08-14T10:00:45;32.90;44.40
59923;DHT22;45778;51.142;3.732;2022-08-14T10:03:12;32.70;45.40
59923;DHT22;45778;51.142;3.732;2022-08-14T10:05:38;32.60;44.70
59923;DHT22;45778;51.142;3.732;2022-08-14T10:08:16;32.40;46.00
59923;DHT22;45778;51.142;3.732;2022-08-14T10:10:42;33.00;46.90
59923;DHT22;45778;51.142;3.732;2022-08-14T10:13:21;33.50;44.70
59923;DHT22;45778;51.142;3.732;2022-08-14T10:15:47;33.40;44.70
59923;DHT22;45778;51.142;3.732;2022-08-14T10:18:16;33.80;44.50
59923;DHT22;45778;51.142;3.732;2022-08-14T10:20:54;34.30;43.30
59923;DHT22;45778;51.142;3.732;2022-08-14T10:23:23;34.50;42.40
59923;DHT22;45778;51.142;3.732;2022-08-14T10:26:03;34.50;42.20
59923;DHT22;45778;51.142;3.732;2022-08-14T10:28:39;33.60;42.60
59923;DHT22;45778;51.142;3.732;2022-08-14T10:31:19;33.10;43.80
59923;DHT22;45778;51.142;3.732;2022-08-14T10:34:01;33.70;43.30
59923;DHT22;45778;51.142;3.732;2022-08-14T10:36:33;33.80;43.40
59923;DHT22;45778;51.142;3.732;2022-08-14T10:39:05;34.00;41.80
59923;DHT22;45778;51.142;3.732;2022-08-14T10:41:39;34.00;40.90
59923;DHT22;45778;51.142;3.732;2022-08-14T10:44:16;34.30;39.90
59923;DHT22;45778;51.142;3.732;2022-08-14T10:49:24;34.60;39.70
59923;DHT22;45778;51.142;3.732;2022-08-14T10:52:06;35.00;39.90
59923;DHT22;45778;51.142;3.732;2022-08-14T10:54:41;35.00;39.50
59923;DHT22;45778;51.142;3.732;2022-08-14T10:57:23;35.10;39.60
59923;DHT22;45778;51.142;3.732;2022-08-14T10:59:55;34.80;39.80
59923;DHT22;45778;51.142;3.732;2022-08-14T11:02:22;34.90;39.60
59923;DHT22;45778;51.142;3.732;2022-08-14T11:05:10;34.30;39.50
59923;DHT22;45778;51.142;3.732;2022-08-14T11:07:58;34.20;39.70
59923;DHT22;45778;51.142;3.732;2022-08-14T11:10:55;34.00;40.00
59923;DHT22;45778;51.142;3.732;2022-08-14T11:13:23;33.10;40.00
59923;DHT22;45778;51.142;3.732;2022-08-14T11:15:50;32.60;40.80
59923;DHT22;45778;51.142;3.732;2022-08-14T11:18:17;32.60;40.20
59923;DHT22;45778;51.142;3.732;2022-08-14T11:20:49;32.40;40.40
59923;DHT22;45778;51.142;3.732;2022-08-14T11:23:16;32.40;40.60
59923;DHT22;45778;51.142;3.732;2022-08-14T11:25:44;32.30;41.40
59923;DHT22;45778;51.142;3.732;2022-08-14T11:28:14;31.80;40.90
59923;DHT22;45778;51.142;3.732;2022-08-14T11:30:42;32.00;40.80
59923;DHT22;45778;51.142;3.732;2022-08-14T11:33:09;32.50;41.10
59923;DHT22;45778;51.142;3.732;2022-08-14T11:35:35;32.60;39.80
59923;DHT22;45778;51.142;3.732;2022-08-14T11:38:06;32.70;40.20
59923;DHT22;45778;51.142;3.732;2022-08-14T11:40:34;32.70;40.00
59923;DHT22;45778;51.142;3.732;2022-08-14T11:43:02;32.70;40.00
59923;DHT22;45778;51.142;3.732;2022-08-14T11:45:34;32.40;40.50
59923;DHT22;45778;51.142;3.732;2022-08-14T11:50:42;32.00;40.60
59923;DHT22;45778;51.142;3.732;2022-08-14T11:55:47;32.40;40.50
59923;DHT22;45778;51.142;3.732;2022-08-14T11:58:16;32.50;40.20
59923;DHT22;45778;51.142;3.732;2022-08-14T12:00:49;32.40;41.30
59923;DHT22;45778;51.142;3.732;2022-08-14T12:03:18;32.70;40.60
59923;DHT22;45778;51.142;3.732;2022-08-14T12:05:44;33.10;39.50
59923;DHT22;45778;51.142;3.732;2022-08-14T12:08:11;33.30;39.00
59923;DHT22;45778;51.142;3.732;2022-08-14T12:10:38;33.90;38.90
59923;DHT22;45778;51.142;3.732;2022-08-14T12:15:42;34.60;37.90
59923;DHT22;45778;51.142;3.732;2022-08-14T12:18:08;35.20;38.10
59923;DHT22;45778;51.142;3.732;2022-08-14T12:20:35;36.10;37.50
59923;DHT22;45778;51.142;3.732;2022-08-14T12:23:04;35.80;37.30
59923;DHT22;45778;51.142;3.732;2022-08-14T12:25:30;35.80;36.70
59923;DHT22;45778;51.142;3.732;2022-08-14T12:27:57;36.70;37.10
59923;DHT22;45778;51.142;3.732;2022-08-14T12:30:30;37.40;36.70
59923;DHT22;45778;51.142;3.732;2022-08-14T12:32:57;38.50;36.00
59923;DHT22;45778;51.142;3.732;2022-08-14T12:35:38;38.60;35.20
59923;DHT22;45778;51.142;3.732;2022-08-14T12:38:04;39.70;34.90
59923;DHT22;45778;51.142;3.732;2022-08-14T12:40:30;38.20;34.20
59923;DHT22;45778;51.142;3.732;2022-08-14T12:43:00;37.20;35.30
59923;DHT22;45778;51.142;3.732;2022-08-14T12:45:32;37.70;36.40
59923;DHT22;45778;51.142;3.732;2022-08-14T12:48:03;40.10;35.20
59923;DHT22;45778;51.142;3.732;2022-08-14T12:50:38;41.70;34.20
59923;DHT22;45778;51.142;3.732;2022-08-14T12:53:05;42.10;33.10
59923;DHT22;45778;51.142;3.732;2022-08-14T12:55:32;42.80;33.20
59923;DHT22;45778;51.142;3.732;2022-08-14T12:58:01;43.40;32.50
59923;DHT22;45778;51.142;3.732;2022-08-14T13:00:31;44.20;32.60
59923;DHT22;45778;51.142;3.732;2022-08-14T13:02:57;44.10;31.60
59923;DHT22;45778;51.142;3.732;2022-08-14T13:05:25;43.40;32.30
59923;DHT22;45778;51.142;3.732;2022-08-14T13:07:51;42.40;33.00
59923;DHT22;45778;51.142;3.732;2022-08-14T13:10:19;42.70;32.80
59923;DHT22;45778;51.142;3.732;2022-08-14T13:12:45;42.50;31.90
59923;DHT22;45778;51.142;3.732;2022-08-14T13:15:13;41.60;32.80
59923;DHT22;45778;51.142;3.732;2022-08-14T13:17:44;42.90;32.90
59923;DHT22;45778;51.142;3.732;2022-08-14T13:20:12;43.50;32.70
59923;DHT22;45778;51.142;3.732;2022-08-14T13:22:42;44.30;32.50
59923;DHT22;45778;51.142;3.732;2022-08-14T13:25:11;44.90;31.60
59923;DHT22;45778;51.142;3.732;2022-08-14T13:27:38;43.60;32.00
59923;DHT22;45778;51.142;3.732;2022-08-14T13:30:08;43.80;31.80
59923;DHT22;45778;51.142;3.732;2022-08-14T13:32:35;43.10;32.10
59923;DHT22;45778;51.142;3.732;2022-08-14T13:35:04;43.80;32.40
59923;DHT22;45778;51.142;3.732;2022-08-14T13:37:30;40.40;33.10
59923;DHT22;45778;51.142;3.732;2022-08-14T13:39:56;39.70;33.60
59923;DHT22;45778;51.142;3.732;2022-08-14T13:42:22;38.00;35.00
59923;DHT22;45778;51.142;3.732;2022-08-14T13:44:52;39.30;33.80
59923;DHT22;45778;51.142;3.732;2022-08-14T13:47:24;41.20;33.50
59923;DHT22;45778;51.142;3.732;2022-08-14T13:49:54;42.20;32.20
59923;DHT22;45778;51.142;3.732;2022-08-14T13:52:21;41.30;31.60
59923;DHT22;45778;51.142;3.732;2022-08-14T13:54:49;39.70;32.90
59923;DHT22;45778;51.142;3.732;2022-08-14T13:57:16;38.40;33.50
59923;DHT22;45778;51.142;3.732;2022-08-14T13:59:47;38.10;33.80
59923;DHT22;45778;51.142;3.732;2022-08-14T14:02:15;38.10;34.70
59923;DHT22;45778;51.142;3.732;2022-08-14T14:04:47;38.90;33.10
59923;DHT22;45778;51.142;3.732;2022-08-14T14:07:19;38.30;33.20
59923;DHT22;45778;51.142;3.732;2022-08-14T14:09:47;37.70;33.60
59923;DHT22;45778;51.142;3.732;2022-08-14T14:12:14;37.90;33.80
59923;DHT22;45778;51.142;3.732;2022-08-14T14:14:41;38.00;33.90
59923;DHT22;45778;51.142;3.732;2022-08-14T14:17:09;37.30;35.20
59923;DHT22;45778;51.142;3.732;2022-08-14T14:19:37;37.00;34.60
59923;DHT22;45778;51.142;3.732;2022-08-14T14:22:06;36.50;34.40
59923;DHT22;45778;51.142;3.732;2022-08-14T14:24:32;36.50;33.80
59923;DHT22;45778;51.142;3.732;2022-08-14T14:27:00;36.40;34.60
59923;DHT22;45778;51.142;3.732;2022-08-14T14:29:27;37.00;35.20
59923;DHT22;45778;51.142;3.732;2022-08-14T14:31:53;37.10;34.60
59923;DHT22;45778;51.142;3.732;2022-08-14T14:34:24;37.10;35.70
59923;DHT22;45778;51.142;3.732;2022-08-14T14:36:50;38.30;34.30
59923;DHT22;45778;51.142;3.732;2022-08-14T14:39:21;37.70;34.10
59923;DHT22;45778;51.142;3.732;2022-08-14T14:41:50;37.00;35.30
59923;DHT22;45778;51.142;3.732;2022-08-14T14:44:19;37.30;34.50
59923;DHT22;45778;51.142;3.732;2022-08-14T14:46:47;37.10;35.20
59923;DHT22;45778;51.142;3.732;2022-08-14T14:49:14;36.30;36.20
59923;DHT22;45778;51.142;3.732;2022-08-14T14:51:43;36.90;35.70
59923;DHT22;45778;51.142;3.732;2022-08-14T14:54:10;36.40;35.40
59923;DHT22;45778;51.142;3.732;2022-08-14T14:56:41;35.70;36.20
59923;DHT22;45778;51.142;3.732;2022-08-14T14:59:08;35.80;36.30
59923;DHT22;45778;51.142;3.732;2022-08-14T15:01:36;35.60;35.40
59923;DHT22;45778;51.142;3.732;2022-08-14T15:04:03;35.10;37.00
59923;DHT22;45778;51.142;3.732;2022-08-14T15:06:30;34.90;36.70
59923;DHT22;45778;51.142;3.732;2022-08-14T15:09:00;35.10;36.20
59923;DHT22;45778;51.142;3.732;2022-08-14T15:11:26;35.00;37.00
59923;DHT22;45778;51.142;3.732;2022-08-14T15:13:52;34.70;37.60
59923;DHT22;45778;51.142;3.732;2022-08-14T15:16:18;35.20;37.40
59923;DHT22;45778;51.142;3.732;2022-08-14T15:18:44;35.30;37.10
59923;DHT22;45778;51.142;3.732;2022-08-14T15:21:11;35.50;38.20
59923;DHT22;45778;51.142;3.732;2022-08-14T15:23:38;35.00;37.90
59923;DHT22;45778;51.142;3.732;2022-08-14T15:26:04;35.00;37.60
59923;DHT22;45778;51.142;3.732;2022-08-14T15:28:30;34.90;37.60
59923;DHT22;45778;51.142;3.732;2022-08-14T15:30:59;35.20;37.70
59923;DHT22;45778;51.142;3.732;2022-08-14T15:33:25;35.10;37.50
59923;DHT22;45778;51.142;3.732;2022-08-14T15:36:11;35.40;37.60
59923;DHT22;45778;51.142;3.732;2022-08-14T15:38:37;35.80;37.20
59923;DHT22;45778;51.142;3.732;2022-08-14T15:41:03;36.10;37.30
59923;DHT22;45778;51.142;3.732;2022-08-14T15:43:30;36.10;37.30
59923;DHT22;45778;51.142;3.732;2022-08-14T15:45:59;36.00;37.30
59923;DHT22;45778;51.142;3.732;2022-08-14T15:48:25;35.00;37.60
59923;DHT22;45778;51.142;3.732;2022-08-14T15:50:50;35.10;38.30
59923;DHT22;45778;51.142;3.732;2022-08-14T15:53:16;34.50;38.20
59923;DHT22;45778;51.142;3.732;2022-08-14T15:55:42;34.30;38.80
59923;DHT22;45778;51.142;3.732;2022-08-14T15:58:07;33.70;39.10
59923;DHT22;45778;51.142;3.732;2022-08-14T16:00:35;33.30;38.00
59923;DHT22;45778;51.142;3.732;2022-08-14T16:03:21;33.40;38.70
59923;DHT22;45778;51.142;3.732;2022-08-14T16:05:46;33.20;39.10
59923;DHT22;45778;51.142;3.732;2022-08-14T16:08:13;33.10;39.00
59923;DHT22;45778;51.142;3.732;2022-08-14T16:10:40;33.10;38.50